GGCES EGLA-EGBP

Flight info

Callsign GGCES
Flight time 0h 46m
Altitude 2000
Route VFR
Aircraft DA42/L-SDGRY/N

Departure

Time 2026-04-26 15:01
Airport Bodmin Airfield (EGLA)

Arrival

Time 2026-04-26 15:47
Airport Cotswold Airport (EGBP)
Time Latitude Longitude Altitude Speed Heading
2026-04-26 14:42 50.50001 -4.66393 633 ft 0 kts 282°
2026-04-26 14:58 50.50030 -4.66433 639 ft 7 kts 330°
2026-04-26 14:58 50.50076 -4.66461 648 ft 0 kts 348°
2026-04-26 14:58 50.50078 -4.66466 649 ft 2 kts 243°
2026-04-26 14:58 50.50046 -4.66451 644 ft 2 kts 156°
2026-04-26 14:59 50.50005 -4.66445 644 ft 4 kts 198°
2026-04-26 14:59 50.49984 -4.66462 651 ft 4 kts 177°
2026-04-26 14:59 50.49922 -4.66402 652 ft 17 kts 138°
2026-04-26 14:59 50.49853 -4.66307 648 ft 14 kts 143°
2026-04-26 15:00 50.49818 -4.66257 647 ft 1 kts 140°
2026-04-26 15:00 50.49805 -4.66284 648 ft 14 kts 307°
2026-04-26 15:00 50.49982 -4.66619 656 ft 67 kts 310°
2026-04-26 15:00 50.50338 -4.67291 778 ft 84 kts 313°
2026-04-26 15:01 50.50833 -4.67790 1015 ft 93 kts
2026-04-26 15:01 50.51435 -4.67443 1344 ft 96 kts 31°
2026-04-26 15:01 50.52018 -4.66836 1524 ft 102 kts 43°
2026-04-26 15:01 50.52523 -4.66104 1834 ft 97 kts 50°
2026-04-26 15:02 50.52942 -4.65264 2106 ft 98 kts 60°
2026-04-26 15:02 50.53258 -4.64342 2394 ft 101 kts 69°
2026-04-26 15:02 50.53512 -4.63180 2405 ft 120 kts 77°
2026-04-26 15:02 50.53689 -4.61855 2402 ft 128 kts 80°
2026-04-26 15:03 50.53826 -4.60457 2394 ft 131 kts 83°
2026-04-26 15:03 50.53881 -4.59028 2392 ft 131 kts 90°
2026-04-26 15:03 50.53827 -4.57581 2397 ft 134 kts 97°
2026-04-26 15:03 50.53699 -4.56093 2375 ft 141 kts 92°
2026-04-26 15:04 50.53728 -4.54523 2400 ft 151 kts 89°
2026-04-26 15:04 50.53885 -4.52877 2390 ft 157 kts 67°
2026-04-26 15:04 50.54418 -4.51338 2390 ft 160 kts 62°
2026-04-26 15:04 50.54980 -4.49797 2389 ft 163 kts 62°
2026-04-26 15:05 50.55540 -4.48254 2393 ft 163 kts 62°
2026-04-26 15:05 50.55917 -4.47225 2392 ft 164 kts 62°
2026-04-26 15:05 50.56677 -4.45160 2389 ft 161 kts 62°
2026-04-26 15:05 50.57241 -4.43619 2390 ft 164 kts 62°
2026-04-26 15:06 50.57821 -4.42059 2379 ft 166 kts 61°
2026-04-26 15:06 50.58390 -4.40501 2393 ft 163 kts 62°
2026-04-26 15:06 50.58950 -4.38931 2381 ft 162 kts 61°
2026-04-26 15:06 50.59523 -4.37379 2381 ft 166 kts 60°
2026-04-26 15:07 50.60653 -4.34250 2374 ft 164 kts 61°
2026-04-26 15:07 50.61238 -4.32707 2392 ft 166 kts 61°
2026-04-26 15:07 50.61809 -4.31119 2384 ft 168 kts 61°
2026-04-26 15:08 50.62389 -4.29521 2398 ft 172 kts 62°
2026-04-26 15:08 50.62994 -4.27865 2385 ft 174 kts 62°
2026-04-26 15:08 50.63572 -4.26257 2377 ft 164 kts 61°
2026-04-26 15:08 50.64140 -4.24689 2379 ft 164 kts 61°
2026-04-26 15:09 50.64695 -4.23158 2400 ft 159 kts 62°
2026-04-26 15:09 50.65245 -4.21627 2386 ft 159 kts 60°
2026-04-26 15:09 50.65792 -4.20116 2382 ft 158 kts 62°
2026-04-26 15:09 50.66333 -4.18603 2394 ft 157 kts 62°
2026-04-26 15:10 50.66867 -4.17087 2382 ft 158 kts 62°
2026-04-26 15:10 50.67224 -4.16079 2382 ft 160 kts 62°
2026-04-26 15:10 50.67949 -4.14014 2383 ft 165 kts 61°
2026-04-26 15:10 50.68504 -4.12461 2376 ft 160 kts 62°
2026-04-26 15:11 50.69053 -4.10946 2388 ft 158 kts 62°
2026-04-26 15:11 50.69604 -4.09426 2383 ft 160 kts 62°
2026-04-26 15:11 50.70142 -4.07912 2382 ft 157 kts 62°
2026-04-26 15:11 50.70683 -4.06416 2380 ft 158 kts 61°
2026-04-26 15:12 50.71232 -4.04901 2385 ft 160 kts 62°
2026-04-26 15:12 50.71770 -4.03396 2392 ft 160 kts 62°
2026-04-26 15:12 50.72311 -4.01875 2385 ft 157 kts 61°
2026-04-26 15:12 50.72846 -4.00388 2377 ft 155 kts 61°
2026-04-26 15:13 50.73372 -3.98923 2385 ft 152 kts 62°
2026-04-26 15:13 50.73907 -3.97475 2395 ft 155 kts 61°
2026-04-26 15:13 50.74444 -3.95998 2394 ft 155 kts 62°
2026-04-26 15:13 50.74997 -3.94506 2374 ft 162 kts 61°
2026-04-26 15:14 50.75554 -3.93009 2560 ft 149 kts 62°
2026-04-26 15:14 50.76045 -3.91723 2997 ft 124 kts 62°
2026-04-26 15:14 50.76446 -3.90626 3377 ft 112 kts 62°
2026-04-26 15:14 50.76842 -3.89549 3764 ft 114 kts 61°
2026-04-26 15:15 50.77232 -3.88458 4076 ft 115 kts 61°
2026-04-26 15:15 50.77640 -3.87361 4397 ft 121 kts 58°
2026-04-26 15:15 50.78137 -3.86155 4417 ft 143 kts 58°
2026-04-26 15:15 50.78705 -3.84768 4412 ft 156 kts 57°
2026-04-26 15:16 50.79356 -3.83341 4417 ft 163 kts 54°
2026-04-26 15:16 50.80043 -3.81885 4410 ft 168 kts 54°
2026-04-26 15:16 50.80735 -3.80420 4619 ft 158 kts 53°
2026-04-26 15:16 50.81342 -3.79135 5128 ft 134 kts 53°
2026-04-26 15:17 50.81861 -3.78027 5559 ft 123 kts 53°
2026-04-26 15:17 50.82200 -3.77296 5728 ft 125 kts 53°
2026-04-26 15:17 50.82893 -3.75786 6140 ft 128 kts 53°
2026-04-26 15:17 50.83414 -3.74642 6519 ft 130 kts 53°
2026-04-26 15:18 50.83946 -3.73477 6823 ft 131 kts 53°
2026-04-26 15:18 50.84481 -3.72306 7131 ft 132 kts 54°
2026-04-26 15:18 50.85026 -3.71125 7433 ft 134 kts 54°
2026-04-26 15:18 50.85591 -3.69928 7603 ft 145 kts 54°
2026-04-26 15:19 50.86239 -3.68558 7489 ft 168 kts 53°
2026-04-26 15:19 50.86970 -3.67001 7369 ft 183 kts 53°
2026-04-26 15:19 50.87754 -3.65357 7252 ft 190 kts 50°
2026-04-26 15:19 50.88621 -3.63743 7135 ft 194 kts 49°
2026-04-26 15:20 50.89503 -3.62114 7011 ft 196 kts 49°
2026-04-26 15:20 50.90392 -3.60476 6902 ft 197 kts 49°
2026-04-26 15:20 50.91289 -3.58807 6790 ft 198 kts 49°
2026-04-26 15:20 50.92173 -3.57177 6787 ft 192 kts 49°
2026-04-26 15:21 50.93036 -3.55579 6796 ft 190 kts 48°
2026-04-26 15:21 50.93895 -3.53983 6789 ft 189 kts 49°
2026-04-26 15:21 50.94745 -3.52405 6791 ft 188 kts 46°
2026-04-26 15:21 50.95596 -3.50846 6786 ft 186 kts 49°
2026-04-26 15:22 50.96433 -3.49292 6790 ft 186 kts 49°
2026-04-26 15:22 50.97271 -3.47725 6791 ft 187 kts 49°
2026-04-26 15:22 50.98104 -3.46167 6787 ft 187 kts 49°
2026-04-26 15:22 50.98946 -3.44596 6787 ft 186 kts 49°
2026-04-26 15:23 50.99798 -3.43054 6780 ft 185 kts 43°
2026-04-26 15:23 51.00810 -3.41815 6778 ft 183 kts 39°
2026-04-26 15:23 51.01764 -3.40485 6781 ft 182 kts 40°
2026-04-26 15:23 51.02712 -3.39143 6785 ft 182 kts 40°
2026-04-26 15:24 51.03677 -3.37792 6784 ft 187 kts 40°
2026-04-26 15:24 51.04631 -3.36440 6776 ft 186 kts 41°
2026-04-26 15:24 51.05593 -3.35081 6779 ft 185 kts 41°
2026-04-26 15:24 51.06562 -3.33731 6778 ft 185 kts 40°
2026-04-26 15:25 51.07521 -3.32373 6773 ft 184 kts 41°
2026-04-26 15:25 51.08104 -3.31393 6780 ft 184 kts 49°
2026-04-26 15:25 51.09183 -3.29279 6781 ft 184 kts 51°
2026-04-26 15:25 51.09958 -3.27666 6776 ft 183 kts 53°
2026-04-26 15:26 51.10448 -3.26583 6776 ft 182 kts 54°
2026-04-26 15:26 51.11197 -3.24945 6782 ft 183 kts 53°
2026-04-26 15:26 51.11945 -3.23301 6780 ft 184 kts 54°
2026-04-26 15:26 51.12692 -3.21654 6790 ft 184 kts 54°
2026-04-26 15:27 51.13692 -3.19454 6773 ft 184 kts 54°
2026-04-26 15:27 51.14198 -3.18338 6773 ft 183 kts 54°
2026-04-26 15:27 51.14943 -3.16693 6778 ft 184 kts 54°
2026-04-26 15:27 51.15695 -3.15037 6778 ft 185 kts 54°
2026-04-26 15:28 51.16448 -3.13377 6782 ft 185 kts 54°
2026-04-26 15:28 51.17198 -3.11719 6777 ft 184 kts 54°
2026-04-26 15:28 51.17937 -3.10099 6777 ft 182 kts 54°
2026-04-26 15:28 51.18683 -3.08459 6774 ft 182 kts 54°
2026-04-26 15:29 51.19423 -3.06831 6772 ft 181 kts 53°
2026-04-26 15:29 51.20164 -3.05214 6775 ft 181 kts 53°
2026-04-26 15:29 51.21646 -3.01956 6779 ft 181 kts 54°
2026-04-26 15:30 51.23132 -2.98699 6780 ft 182 kts 54°
2026-04-26 15:30 51.23880 -2.97062 6775 ft 182 kts 54°
2026-04-26 15:30 51.24629 -2.95413 6781 ft 184 kts 53°
2026-04-26 15:31 51.25387 -2.93762 6782 ft 184 kts 53°
2026-04-26 15:31 51.26901 -2.90433 6772 ft 185 kts 54°
2026-04-26 15:31 51.27659 -2.88783 6774 ft 184 kts 54°
2026-04-26 15:32 51.28906 -2.86079 6774 ft 182 kts 54°
2026-04-26 15:32 51.29917 -2.83884 6780 ft 184 kts 54°
2026-04-26 15:32 51.30675 -2.82223 6781 ft 185 kts 54°
2026-04-26 15:33 51.31437 -2.80560 6776 ft 185 kts 54°
2026-04-26 15:33 51.32199 -2.78905 6773 ft 184 kts 54°
2026-04-26 15:33 51.32954 -2.77258 6773 ft 183 kts 54°
2026-04-26 15:33 51.33709 -2.75611 6774 ft 184 kts 54°
2026-04-26 15:34 51.34466 -2.73967 6782 ft 184 kts 53°
2026-04-26 15:34 51.35432 -2.72647 6767 ft 185 kts 30°
2026-04-26 15:34 51.36558 -2.71672 6772 ft 183 kts 27°
2026-04-26 15:34 51.37694 -2.70723 6779 ft 183 kts 27°
2026-04-26 15:35 51.38807 -2.69797 6775 ft 182 kts 27°
2026-04-26 15:35 51.39952 -2.68931 6771 ft 182 kts 22°
2026-04-26 15:35 51.41129 -2.68155 6777 ft 184 kts 21°
2026-04-26 15:35 51.42313 -2.67374 6769 ft 184 kts 22°
2026-04-26 15:36 51.43488 -2.66589 6773 ft 183 kts 22°
2026-04-26 15:36 51.44665 -2.65804 6776 ft 184 kts 22°
2026-04-26 15:36 51.45853 -2.65022 6770 ft 185 kts 22°
2026-04-26 15:36 51.47036 -2.64235 6770 ft 183 kts 22°
2026-04-26 15:37 51.48214 -2.63458 6773 ft 183 kts 22°
2026-04-26 15:37 51.49390 -2.62680 6772 ft 183 kts 22°
2026-04-26 15:37 51.50568 -2.61905 6779 ft 182 kts 22°
2026-04-26 15:37 51.51726 -2.61140 6772 ft 182 kts 22°
2026-04-26 15:38 51.52900 -2.60367 6771 ft 182 kts 22°
2026-04-26 15:38 51.54038 -2.59475 6773 ft 182 kts 34°
2026-04-26 15:38 51.55057 -2.58257 6772 ft 182 kts 38°
2026-04-26 15:38 51.56057 -2.57012 6777 ft 181 kts 38°
2026-04-26 15:39 51.57056 -2.55770 6780 ft 182 kts 38°
2026-04-26 15:39 51.58066 -2.54513 6781 ft 184 kts 38°
2026-04-26 15:39 51.59077 -2.53260 6785 ft 183 kts 38°
2026-04-26 15:39 51.59741 -2.52431 6786 ft 183 kts 38°
2026-04-26 15:40 51.61073 -2.50769 6782 ft 182 kts 38°
2026-04-26 15:40 51.61986 -2.49382 6784 ft 181 kts 57°
2026-04-26 15:40 51.62584 -2.47602 6797 ft 182 kts 64°
2026-04-26 15:40 51.63143 -2.45761 6740 ft 185 kts 65°
2026-04-26 15:41 51.63713 -2.43873 6587 ft 190 kts 65°
2026-04-26 15:41 51.64078 -2.41866 6426 ft 182 kts 81°
2026-04-26 15:41 51.64250 -2.39894 6274 ft 175 kts 87°
2026-04-26 15:41 51.64328 -2.37959 6115 ft 171 kts 88°
2026-04-26 15:42 51.64403 -2.36072 5958 ft 166 kts 88°
2026-04-26 15:42 51.64472 -2.34237 5808 ft 163 kts 88°
2026-04-26 15:42 51.64537 -2.32424 5652 ft 162 kts 88°
2026-04-26 15:42 51.64606 -2.30626 5511 ft 162 kts 88°
2026-04-26 15:43 51.64671 -2.28807 5349 ft 161 kts 88°
2026-04-26 15:43 51.64726 -2.27015 5204 ft 160 kts 89°
2026-04-26 15:43 51.64857 -2.23434 4895 ft 159 kts 86°
2026-04-26 15:44 51.64937 -2.21674 4603 ft 164 kts 88°
2026-04-26 15:44 51.65063 -2.17863 3782 ft 169 kts 88°
2026-04-26 15:44 51.65147 -2.16003 3371 ft 166 kts 87°
2026-04-26 15:45 51.65439 -2.12356 2390 ft 159 kts 86°
2026-04-26 15:45 51.65579 -2.10649 1951 ft 146 kts 85°
2026-04-26 15:46 51.65884 -2.07508 1354 ft 130 kts 83°
2026-04-26 15:46 51.66051 -2.06139 1021 ft 124 kts 79°
2026-04-26 15:46 51.66201 -2.04853 893 ft 121 kts 87°
2026-04-26 15:46 51.66257 -2.03995 824 ft 110 kts 84°
2026-04-26 15:47 51.67000 -2.03808 606 ft 98 kts 294°
2026-04-26 15:47 51.66813 -2.05593 423 ft 54 kts 263°
2026-04-26 15:47 51.66789 -2.05959 418 ft 14 kts 307°
2026-04-26 15:48 51.66832 -2.06057 431 ft 10 kts 303°
2026-04-26 15:48 51.66877 -2.06082 432 ft 7 kts 32°
2026-04-26 15:48 51.66911 -2.06044 432 ft 6 kts 43°
2026-04-26 15:48 51.66943 -2.05998 432 ft 6 kts 75°
2026-04-26 15:49 51.66941 -2.05936 432 ft 8 kts 96°
2026-04-26 15:49 51.66935 -2.05818 432 ft 9 kts 93°
2026-04-26 15:49 51.66935 -2.05788 432 ft 0 kts 87°
2026-04-26 15:50 51.66941 -2.05783 432 ft 5 kts 338°
2026-04-26 15:50 51.66948 -2.05788 421 ft 0 kts 340°